Time;durP1;ratioP1;P1;durP2;ratioP2;P2;SDS_P1;SDS_P2;PMS_P1;PMS_P2;Temp;Humidity;BMP_temperature;BMP_pressure;BME280_temperature;BME280_humidity;BME280_pressure;Samples;Min_cycle;Max_cycle;Signal;HPM_P1;HPM_P2
2022/07/25 00:01:59;;;;;;;2.03;1.83;;;22.90;99.90;;;;;;5024541;28;20059;-80
2022/07/25 00:04:24;;;;;;;1.67;1.58;;;22.90;99.90;;;;;;5044608;28;20045;-80
2022/07/25 00:06:50;;;;;;;1.80;1.48;;;22.90;99.90;;;;;;5044459;28;20080;-80
2022/07/25 00:09:19;;;;;;;1.90;1.80;;;22.90;99.90;;;;;;5026374;28;20092;-79
2022/07/25 00:11:47;;;;;;;2.33;1.45;;;23.10;99.90;;;;;;5046075;28;20485;-80
2022/07/25 00:14:13;;;;;;;1.77;1.60;;;22.90;99.90;;;;;;5027123;28;20065;-79
2022/07/25 00:16:38;;;;;;;1.95;1.50;;;23.00;99.90;;;;;;5044336;28;20134;-80
2022/07/25 00:19:05;;;;;;;3.05;1.40;;;22.90;99.90;;;;;;5052160;28;20053;-81
2022/07/25 00:21:31;;;;;;;1.50;1.40;;;23.00;99.90;;;;;;5044785;28;20037;-78
2022/07/25 00:23:57;;;;;;;1.75;1.65;;;23.00;99.90;;;;;;5044327;28;20049;-80
2022/07/25 00:26:25;;;;;;;1.95;1.75;;;23.00;99.90;;;;;;5052488;28;20045;-79
2022/07/25 00:28:54;;;;;;;1.67;1.58;;;23.00;99.90;;;;;;5046200;28;20045;-80
2022/07/25 00:31:20;;;;;;;4.00;1.80;;;22.90;99.90;;;;;;5044547;28;20033;-79
2022/07/25 00:33:45;;;;;;;2.10;1.88;;;23.00;99.90;;;;;;5044313;28;20486;-80
2022/07/25 00:36:11;;;;;;;3.47;1.75;;;23.00;99.90;;;;;;5047444;28;20049;-79
2022/07/25 00:38:37;;;;;;;3.03;2.08;;;23.00;99.90;;;;;;5046587;28;20044;-78
2022/07/25 00:41:03;;;;;;;3.42;1.90;;;23.00;99.90;;;;;;5026787;28;20037;-77
2022/07/25 00:43:29;;;;;;;2.95;1.80;;;22.90;99.90;;;;;;5032254;28;20072;-79
2022/07/25 00:45:54;;;;;;;3.30;1.73;;;22.90;99.90;;;;;;5033090;28;20147;-80
2022/07/25 00:48:20;;;;;;;3.17;2.10;;;22.90;99.90;;;;;;5043946;28;20049;-79
2022/07/25 00:50:45;;;;;;;3.78;2.05;;;22.90;99.90;;;;;;5042222;28;20370;-80
2022/07/25 00:53:11;;;;;;;2.10;1.90;;;23.40;99.90;;;;;;5046879;28;20048;-79
2022/07/25 00:55:37;;;;;;;2.92;2.15;;;22.90;99.90;;;;;;5029794;28;20040;-79
2022/07/25 00:58:03;;;;;;;3.47;2.15;;;22.90;99.90;;;;;;5044528;28;20460;-79
2022/07/25 01:00:29;;;;;;;3.65;2.35;;;22.80;99.90;;;;;;5037627;28;20045;-79
2022/07/25 01:02:54;;;;;;;2.00;1.90;;;22.90;99.90;;;;;;5045746;28;20037;-79
2022/07/25 01:05:20;;;;;;;3.50;2.30;;;22.80;99.90;;;;;;5042973;28;20045;-80
2022/07/25 01:07:46;;;;;;;3.63;2.70;;;22.80;99.90;;;;;;5044170;28;20511;-81
2022/07/25 01:10:12;;;;;;;4.03;2.65;;;22.80;99.90;;;;;;5011554;28;20127;-80
2022/07/25 01:12:47;;;;;;;5.53;2.75;;;22.80;99.90;;;;;;5042841;28;20137;-78
2022/07/25 01:15:14;;;;;;;2.70;2.50;;;22.80;99.90;;;;;;5028901;28;20544;-78
2022/07/25 01:17:43;;;;;;;12.98;2.65;;;22.70;99.90;;;;;;5045604;28;20041;-79
2022/07/25 01:20:27;;;;;;;3.78;2.50;;;22.70;99.90;;;;;;5042683;28;20079;-78
2022/07/25 01:22:57;;;;;;;3.05;2.78;;;22.70;99.90;;;;;;5040840;28;20049;-80
2022/07/25 01:25:26;;;;;;;2.95;2.75;;;22.70;99.90;;;;;;5026962;28;20061;-80
2022/07/25 01:27:52;;;;;;;3.75;3.25;;;22.60;99.90;;;;;;5050787;28;20044;-79
2022/07/25 01:30:19;;;;;;;4.65;2.85;;;22.60;99.90;;;;;;5050471;28;20107;-80
2022/07/25 01:32:45;;;;;;;5.70;2.80;;;22.60;99.90;;;;;;5042684;28;20572;-79
2022/07/25 01:35:12;;;;;;;3.67;3.38;;;22.60;99.90;;;;;;5043836;28;20044;-79
2022/07/25 01:37:38;;;;;;;3.17;2.92;;;22.60;99.90;;;;;;5024761;28;20387;-78
2022/07/25 01:40:05;;;;;;;3.50;3.20;;;22.60;99.90;;;;;;5042605;28;20036;-80
2022/07/25 01:42:31;;;;;;;3.97;3.30;;;22.60;99.90;;;;;;5042191;28;20170;-78
2022/07/25 01:44:56;;;;;;;4.25;3.80;;;22.50;99.90;;;;;;5043061;28;20484;-79
2022/07/25 01:47:25;;;;;;;3.95;3.60;;;22.50;99.90;;;;;;5042667;28;20045;-78
2022/07/25 01:49:51;;;;;;;6.60;4.07;;;22.50;99.90;;;;;;5027021;28;20072;-78
2022/07/25 01:52:17;;;;;;;4.10;3.42;;;22.50;99.90;;;;;;5040197;28;20060;-80
2022/07/25 01:54:43;;;;;;;4.55;3.80;;;22.60;99.90;;;;;;5041969;28;20488;-79
2022/07/25 01:57:09;;;;;;;3.60;3.30;;;22.40;99.90;;;;;;5043833;28;20041;-81
2022/07/25 01:59:39;;;;;;;4.18;3.72;;;22.40;99.90;;;;;;5046929;28;20052;-80
2022/07/25 02:02:06;;;;;;;5.68;3.78;;;22.40;99.90;;;;;;5032176;28;20045;-79
2022/07/25 02:04:32;;;;;;;4.65;4.28;;;22.90;99.90;;;;;;5042012;28;20045;-79
2022/07/25 02:06:58;;;;;;;4.70;4.30;;;22.30;99.90;;;;;;5042579;28;20552;-79
2022/07/25 02:09:26;;;;;;;3.95;3.65;;;22.20;99.90;;;;;;5046877;28;20155;-79
2022/07/25 02:11:55;;;;;;;5.38;4.30;;;22.20;99.90;;;;;;5038850;28;20041;-79
2022/07/25 02:14:21;;;;;;;4.72;4.32;;;22.10;99.90;;;;;;5039038;28;20481;-80
2022/07/25 02:16:47;;;;;;;5.18;4.63;;;22.10;99.90;;;;;;5032266;28;20057;-79
2022/07/25 02:19:13;;;;;;;5.78;4.07;;;22.10;99.90;;;;;;5042117;28;20207;-79
2022/07/25 02:21:38;;;;;;;4.60;4.20;;;22.10;99.90;;;;;;5023342;28;20041;-80
2022/07/25 02:24:04;;;;;;;5.05;4.53;;;22.20;99.90;;;;;;5028976;28;20051;-80
2022/07/25 02:26:30;;;;;;;3.88;3.58;;;22.00;99.90;;;;;;5031930;28;20029;-80
2022/07/25 02:28:55;;;;;;;5.13;4.65;;;22.00;99.90;;;;;;5041964;28;20516;-80
2022/07/25 02:31:21;;;;;;;4.60;4.10;;;22.00;99.90;;;;;;5024901;28;20518;-79
2022/07/25 02:33:47;;;;;;;4.72;4.28;;;21.90;99.90;;;;;;5029622;28;20048;-80
2022/07/25 02:36:15;;;;;;;8.48;4.05;;;21.90;99.90;;;;;;5044004;28;20049;-81
2022/07/25 02:38:41;;;;;;;4.32;3.83;;;21.90;99.90;;;;;;5037958;28;20168;-80
2022/07/25 02:41:07;;;;;;;5.20;4.45;;;21.90;99.90;;;;;;5041845;28;20132;-79
2022/07/25 02:43:33;;;;;;;5.13;4.60;;;21.90;99.90;;;;;;5028582;28;20041;-79
2022/07/25 02:45:59;;;;;;;5.15;4.40;;;21.90;99.90;;;;;;5043430;28;20033;-78
2022/07/25 02:48:26;;;;;;;5.18;3.85;;;21.90;99.90;;;;;;5044635;28;20045;-79
2022/07/25 02:50:51;;;;;;;8.63;4.07;;;21.90;99.90;;;;;;5041116;28;20047;-78
2022/07/25 02:53:17;;;;;;;5.75;4.03;;;21.90;99.90;;;;;;5042477;28;20124;-79
2022/07/25 02:55:43;;;;;;;5.22;4.25;;;21.80;99.90;;;;;;5020845;28;20045;-78
2022/07/25 02:58:08;;;;;;;4.35;4.00;;;21.80;99.90;;;;;;5027201;28;20464;-78
2022/07/25 03:00:34;;;;;;;6.35;4.78;;;21.80;99.90;;;;;;5041096;28;20045;-79
2022/07/25 03:02:59;;;;;;;5.63;5.03;;;21.80;99.90;;;;;;5047435;28;20043;-80
2022/07/25 03:05:25;;;;;;;5.47;4.60;;;21.80;99.90;;;;;;5046162;28;20037;-79
2022/07/25 03:07:51;;;;;;;4.80;4.22;;;22.10;99.90;;;;;;5028707;28;20037;-79
2022/07/25 03:10:16;;;;;;;5.18;4.78;;;21.70;99.90;;;;;;5044390;28;20561;-80
2022/07/25 03:12:43;;;;;;;4.65;4.35;;;21.80;99.90;;;;;;5037281;28;20045;-78
2022/07/25 03:15:10;;;;;;;6.95;6.25;;;21.60;99.90;;;;;;5044371;28;20072;-79
2022/07/25 03:17:36;;;;;;;5.88;4.95;;;21.70;99.90;;;;;;5039272;28;20110;-80
2022/07/25 03:20:03;;;;;;;5.65;4.10;;;21.60;99.90;;;;;;5048856;28;20552;-79
2022/07/25 03:22:29;;;;;;;4.55;4.10;;;21.60;99.90;;;;;;5041090;28;20044;-78
2022/07/25 03:24:54;;;;;;;6.10;4.35;;;21.50;99.90;;;;;;5046930;28;20037;-77
2022/07/25 03:27:20;;;;;;;5.07;4.57;;;21.50;99.90;;;;;;5024167;28;20096;-78
2022/07/25 03:29:46;;;;;;;7.32;5.38;;;21.50;99.90;;;;;;5041363;28;20056;-78
2022/07/25 03:32:11;;;;;;;4.55;4.15;;;21.40;99.90;;;;;;5046846;28;20127;-78
2022/07/25 03:34:37;;;;;;;4.63;4.18;;;21.40;99.90;;;;;;5044405;28;20060;-79
2022/07/25 03:37:03;;;;;;;5.85;4.50;;;21.40;99.90;;;;;;5038716;28;20507;-79
2022/07/25 03:39:29;;;;;;;4.35;3.95;;;21.40;99.90;;;;;;5020377;28;20048;-80
2022/07/25 03:41:55;;;;;;;13.70;4.70;;;21.40;99.90;;;;;;5036991;28;20053;-80
2022/07/25 03:44:25;;;;;;;4.50;4.10;;;21.30;99.90;;;;;;5040757;28;20052;-80
2022/07/25 03:46:51;;;;;;;7.32;4.30;;;21.30;99.90;;;;;;5029616;28;20029;-80
2022/07/25 03:49:18;;;;;;;9.98;5.13;;;21.30;99.90;;;;;;5047780;28;20396;-79
2022/07/25 03:51:47;;;;;;;9.43;4.70;;;21.30;99.90;;;;;;5048931;28;20389;-79
2022/07/25 03:54:20;;;;;;;4.75;4.45;;;21.30;99.90;;;;;;5046901;28;20041;-79
2022/07/25 03:56:48;;;;;;;5.43;4.97;;;21.20;99.90;;;;;;5029213;28;20477;-80
2022/07/25 03:59:16;;;;;;;5.90;5.30;;;21.30;99.90;;;;;;5042679;28;20060;-79
2022/07/25 04:01:43;;;;;;;5.63;4.75;;;21.20;99.90;;;;;;5027448;28;20072;-79
2022/07/25 04:04:09;;;;;;;6.30;4.90;;;21.20;99.90;;;;;;5052201;28;20045;-78
2022/07/25 04:06:35;;;;;;;7.80;5.75;;;21.20;99.90;;;;;;5049335;28;20124;-80
2022/07/25 04:09:01;;;;;;;6.40;5.78;;;21.20;99.90;;;;;;5047602;28;20116;-79
2022/07/25 04:11:29;;;;;;;7.13;6.40;;;21.20;99.90;;;;;;5045787;28;20114;-81
2022/07/25 04:13:55;;;;;;;7.40;6.13;;;21.00;99.90;;;;;;5048247;28;20086;-79
2022/07/25 04:16:21;;;;;;;6.65;6.05;;;21.20;99.90;;;;;;5030443;28;20401;-79
2022/07/25 04:18:47;;;;;;;5.80;5.30;;;21.40;99.90;;;;;;5047898;28;21097;-79
2022/07/25 04:21:13;;;;;;;6.38;5.88;;;21.20;99.90;;;;;;5046459;28;20045;-79
2022/07/25 04:23:38;;;;;;;6.50;5.90;;;21.20;99.90;;;;;;5044448;28;20052;-80
2022/07/25 04:26:07;;;;;;;9.02;5.85;;;21.20;99.90;;;;;;5048986;28;20044;-79
2022/07/25 04:28:32;;;;;;;5.97;5.40;;;21.20;99.90;;;;;;5045582;28;20045;-79
2022/07/25 04:30:58;;;;;;;7.65;6.15;;;21.50;99.90;;;;;;5049368;28;20051;-79
2022/07/25 04:33:24;;;;;;;5.97;5.47;;;21.20;99.90;;;;;;5048206;28;20112;-79
2022/07/25 04:35:55;;;;;;;9.15;6.15;;;21.20;99.90;;;;;;5049800;28;20069;-78
2022/07/25 04:38:20;;;;;;;7.45;6.75;;;21.30;99.90;;;;;;5043001;28;20442;-79
2022/07/25 04:40:46;;;;;;;6.97;6.47;;;21.30;99.90;;;;;;5021328;28;20119;-80
2022/07/25 04:43:12;;;;;;;7.25;6.65;;;21.30;99.90;;;;;;5041043;28;20046;-79
2022/07/25 04:45:38;;;;;;;8.55;6.68;;;21.30;99.90;;;;;;5039554;28;20033;-79
2022/07/25 04:48:04;;;;;;;7.13;6.47;;;21.30;99.90;;;;;;5041186;28;20409;-78
2022/07/25 04:50:30;;;;;;;8.18;7.38;;;21.20;99.90;;;;;;5024963;28;20080;-79
2022/07/25 04:52:56;;;;;;;7.68;6.88;;;21.30;99.90;;;;;;5036827;28;20080;-77
2022/07/25 04:55:24;;;;;;;7.60;6.90;;;21.30;99.90;;;;;;5039982;28;20124;-78
2022/07/25 04:57:50;;;;;;;8.10;7.40;;;21.30;99.90;;;;;;5034650;28;20045;-78
2022/07/25 05:00:16;;;;;;;9.93;7.28;;;21.30;99.90;;;;;;5004788;28;20056;-78
2022/07/25 05:02:42;;;;;;;8.35;7.28;;;21.30;99.90;;;;;;5021944;28;20467;-78
2022/07/25 05:05:08;;;;;;;8.13;7.43;;;21.30;99.90;;;;;;5040422;28;20450;-79
2022/07/25 05:07:35;;;;;;;9.10;7.93;;;21.30;99.90;;;;;;5039045;28;20456;-79
2022/07/25 05:10:04;;;;;;;8.65;7.78;;;21.30;99.90;;;;;;5042511;28;20049;-77
2022/07/25 05:12:30;;;;;;;8.35;7.57;;;21.30;99.90;;;;;;5038841;28;20044;-79
2022/07/25 05:14:56;;;;;;;11.85;8.18;;;21.30;99.90;;;;;;5047561;28;20107;-79
2022/07/25 05:17:21;;;;;;;11.27;8.10;;;21.30;99.90;;;;;;5032403;28;20107;-78
2022/07/25 05:19:47;;;;;;;10.63;8.43;;;21.80;99.90;;;;;;5045537;28;20201;-79
2022/07/25 05:22:13;;;;;;;9.73;7.85;;;21.30;99.90;;;;;;5040886;28;20052;-79
2022/07/25 05:24:38;;;;;;;9.80;8.48;;;21.30;99.90;;;;;;5020106;28;20123;-80
2022/07/25 05:27:04;;;;;;;10.05;8.30;;;21.30;99.90;;;;;;5027650;28;20107;-78
2022/07/25 05:29:33;;;;;;;9.55;8.57;;;21.30;99.90;;;;;;5026412;28;20056;-78
2022/07/25 05:31:59;;;;;;;9.93;8.93;;;21.30;99.90;;;;;;5043906;28;20052;-77
2022/07/25 05:34:24;;;;;;;9.70;8.52;;;21.30;99.90;;;;;;5041479;28;20045;-78
2022/07/25 05:36:50;;;;;;;9.27;8.38;;;21.30;99.90;;;;;;5042728;28;20087;-78
2022/07/25 05:39:16;;;;;;;10.68;8.95;;;21.30;99.90;;;;;;5026488;28;20102;-79
2022/07/25 05:41:41;;;;;;;11.00;8.88;;;21.30;99.90;;;;;;5042549;28;20485;-79
2022/07/25 05:44:07;;;;;;;9.27;8.38;;;21.30;99.90;;;;;;5030494;28;20037;-79
2022/07/25 05:46:34;;;;;;;11.32;10.32;;;21.30;99.90;;;;;;5040950;28;20386;-80
2022/07/25 05:49:00;;;;;;;12.23;10.07;;;21.30;99.90;;;;;;5045081;28;20051;-78
2022/07/25 05:51:26;;;;;;;13.88;9.63;;;21.40;99.90;;;;;;5046689;28;20052;-78
2022/07/25 05:53:52;;;;;;;10.88;9.98;;;21.40;99.90;;;;;;5040985;28;20049;-79
2022/07/25 05:56:17;;;;;;;13.35;10.07;;;21.50;99.90;;;;;;5041888;28;20044;-78
2022/07/25 05:58:43;;;;;;;12.40;11.10;;;21.40;99.90;;;;;;5044639;28;20053;-79
2022/07/25 06:01:13;;;;;;;12.43;10.40;;;21.40;99.90;;;;;;5047787;28;20481;-80
2022/07/25 06:03:39;;;;;;;12.63;10.52;;;21.40;99.90;;;;;;5040780;28;20052;-79
2022/07/25 06:06:07;;;;;;;11.63;10.52;;;21.40;99.90;;;;;;5027006;28;20029;-79
2022/07/25 06:08:37;;;;;;;12.27;10.95;;;21.40;99.90;;;;;;5042669;28;20447;-78
2022/07/25 06:11:03;;;;;;;12.70;11.48;;;21.40;99.90;;;;;;5039794;28;20086;-78
2022/07/25 06:13:29;;;;;;;12.82;10.43;;;21.40;99.90;;;;;;5042373;28;20049;-78
2022/07/25 06:15:55;;;;;;;12.20;10.95;;;21.50;99.90;;;;;;5048556;28;20055;-78
2022/07/25 06:18:22;;;;;;;14.10;12.38;;;21.50;99.90;;;;;;5031378;28;20098;-80
2022/07/25 06:20:47;;;;;;;12.35;11.15;;;21.50;99.90;;;;;;5035133;28;20041;-80
2022/07/25 06:23:13;;;;;;;14.27;11.95;;;21.50;99.90;;;;;;5043356;28;20068;-80
2022/07/25 06:25:40;;;;;;;12.85;11.60;;;21.50;99.90;;;;;;4329284;28;10000753;-81
2022/07/25 06:28:06;;;;;;;13.00;11.35;;;21.50;99.90;;;;;;5024056;28;20116;-79
2022/07/25 06:30:32;;;;;;;11.65;10.38;;;21.60;99.90;;;;;;5048400;28;20526;-78
2022/07/25 06:32:57;;;;;;;14.07;11.82;;;21.60;99.90;;;;;;5046693;28;20036;-78
2022/07/25 06:35:24;;;;;;;13.82;11.80;;;21.70;99.90;;;;;;5044299;28;20404;-79
2022/07/25 06:37:50;;;;;;;16.10;12.13;;;21.70;99.90;;;;;;5024325;28;20091;-80
2022/07/25 06:40:16;;;;;;;14.57;13.10;;;21.80;99.90;;;;;;5014629;28;20159;-79
2022/07/25 06:42:43;;;;;;;13.77;11.13;;;21.90;99.90;;;;;;5045333;28;20045;-79
2022/07/25 06:45:11;;;;;;;16.52;11.73;;;21.90;99.90;;;;;;5046802;28;20451;-80
2022/07/25 06:47:41;;;;;;;15.23;11.50;;;21.90;99.90;;;;;;5030383;28;20040;-80
2022/07/25 06:50:09;;;;;;;12.60;11.50;;;22.00;99.90;;;;;;5045196;28;20051;-79
2022/07/25 06:52:34;;;;;;;13.00;11.73;;;22.00;99.90;;;;;;5046786;28;20037;-79
2022/07/25 06:55:01;;;;;;;12.93;11.63;;;22.00;99.90;;;;;;5028357;28;20048;-80
2022/07/25 06:57:27;;;;;;;12.27;11.13;;;22.10;99.90;;;;;;5044261;28;20493;-80
2022/07/25 06:59:53;;;;;;;14.80;12.27;;;22.10;99.90;;;;;;5041084;28;20064;-79
2022/07/25 07:02:19;;;;;;;14.18;11.15;;;22.10;99.90;;;;;;5034792;28;20037;-78
2022/07/25 07:04:45;;;;;;;11.95;10.85;;;22.30;99.90;;;;;;5045249;28;20052;-76
2022/07/25 07:07:11;;;;;;;16.88;12.52;;;22.20;99.90;;;;;;5050998;28;20041;-79
2022/07/25 07:09:37;;;;;;;13.23;10.50;;;22.50;99.90;;;;;;5048228;28;20090;-77
2022/07/25 07:12:03;;;;;;;12.65;10.73;;;22.20;99.90;;;;;;5029155;28;20041;-79
2022/07/25 07:14:36;;;;;;;12.55;11.25;;;22.20;99.90;;;;;;5047183;28;20032;-78
2022/07/25 07:17:02;;;;;;;13.02;11.25;;;22.20;99.90;;;;;;5045022;28;20043;-79
2022/07/25 07:19:28;;;;;;;11.68;10.55;;;22.30;99.90;;;;;;5043470;28;20174;-79
2022/07/25 07:21:57;;;;;;;11.55;10.30;;;22.30;99.90;;;;;;5047150;28;20141;-79
2022/07/25 07:24:22;;;;;;;15.50;9.90;;;22.40;99.90;;;;;;5045869;28;20097;-80
2022/07/25 07:26:48;;;;;;;10.85;9.75;;;22.40;99.90;;;;;;5009858;28;20045;-80
2022/07/25 07:29:14;;;;;;;15.15;10.88;;;22.40;99.90;;;;;;5043918;28;20083;-79
2022/07/25 07:31:40;;;;;;;12.48;9.82;;;22.50;99.90;;;;;;5040860;28;20095;-80
2022/07/25 07:34:05;;;;;;;15.98;10.10;;;22.50;99.90;;;;;;5052050;28;20094;-80
2022/07/25 07:36:31;;;;;;;9.88;9.10;;;22.60;99.90;;;;;;5049302;28;20408;-80
2022/07/25 07:38:57;;;;;;;11.13;9.85;;;22.60;99.90;;;;;;5044442;28;20043;-79
2022/07/25 07:41:22;;;;;;;13.25;9.93;;;22.70;99.90;;;;;;5045573;28;20041;-79
2022/07/25 07:43:48;;;;;;;12.57;9.45;;;22.60;99.90;;;;;;5017028;28;20468;-80
2022/07/25 07:46:17;;;;;;;10.02;9.02;;;22.70;99.90;;;;;;5039025;28;20049;-74
2022/07/25 07:48:43;;;;;;;9.93;8.88;;;22.80;99.90;;;;;;5035015;28;20044;-78
2022/07/25 07:51:08;;;;;;;9.50;8.60;;;23.20;99.90;;;;;;5046564;28;20132;-75
2022/07/25 07:56:18;;;;;;;8.65;7.78;;;22.90;99.90;;;;;;5030461;28;20045;-76
2022/07/25 07:58:44;;;;;;;10.05;8.68;;;22.90;99.90;;;;;;5033707;28;20389;-75
2022/07/25 08:01:10;;;;;;;9.35;8.13;;;23.20;99.90;;;;;;5052054;28;20635;-76
2022/07/25 08:03:36;;;;;;;8.27;7.28;;;23.10;99.90;;;;;;5033599;28;20041;-76
2022/07/25 08:06:03;;;;;;;7.50;6.78;;;23.10;99.90;;;;;;5052164;28;20068;-75
2022/07/25 08:08:29;;;;;;;8.35;7.55;;;23.10;99.90;;;;;;5052734;28;20049;-75
2022/07/25 08:10:55;;;;;;;8.98;8.07;;;23.20;99.90;;;;;;5033483;28;20033;-75
2022/07/25 08:13:23;;;;;;;8.98;7.20;;;23.30;99.90;;;;;;5028815;28;20056;-75
2022/07/25 08:15:51;;;;;;;7.75;6.93;;;23.30;99.90;;;;;;5044171;28;20076;-74
2022/07/25 08:18:17;;;;;;;5.63;5.13;;;23.60;99.90;;;;;;5054450;28;20064;-75
2022/07/25 08:20:44;;;;;;;4.80;4.30;;;23.40;99.90;;;;;;5046664;28;20053;-74
2022/07/25 08:23:10;;;;;;;3.05;2.47;;;23.70;99.90;;;;;;5042244;28;20081;-75
2022/07/25 08:25:36;;;;;;;4.75;2.70;;;23.50;99.90;;;;;;5048143;28;20087;-75
2022/07/25 08:28:05;;;;;;;5.85;3.10;;;23.60;99.90;;;;;;5048883;28;20137;-75
2022/07/25 08:30:36;;;;;;;2.65;2.45;;;23.50;99.90;;;;;;5041230;28;20041;-74
2022/07/25 08:33:04;;;;;;;2.70;2.50;;;23.50;99.90;;;;;;5043784;28;20087;-75
2022/07/25 08:35:31;;;;;;;3.92;3.33;;;23.40;99.90;;;;;;5041689;28;20486;-75
2022/07/25 08:37:59;;;;;;;2.78;2.58;;;23.40;99.90;;;;;;5042881;28;20473;-76
2022/07/25 08:40:26;;;;;;;3.47;2.85;;;23.30;99.90;;;;;;5045314;28;20040;-74
2022/07/25 08:42:55;;;;;;;3.25;2.88;;;23.20;99.90;;;;;;5048843;28;20041;-76
2022/07/25 08:45:22;;;;;;;5.43;2.60;;;23.20;99.90;;;;;;5049054;28;20136;-75
2022/07/25 08:47:53;;;;;;;9.38;2.97;;;23.10;99.90;;;;;;5040660;28;20595;-75
2022/07/25 08:50:20;;;;;;;5.07;2.83;;;23.10;99.90;;;;;;5030749;28;20045;-75
2022/07/25 08:52:47;;;;;;;4.80;2.55;;;23.10;99.90;;;;;;5026553;28;20091;-75
2022/07/25 08:55:18;;;;;;;6.00;2.35;;;23.00;99.90;;;;;;5040875;28;20333;-75
2022/07/25 08:57:45;;;;;;;6.00;2.05;;;23.00;99.90;;;;;;5040329;28;20077;-76
2022/07/25 09:00:14;;;;;;;1.85;1.65;;;23.20;99.90;;;;;;5044095;28;20053;-76
2022/07/25 09:02:40;;;;;;;2.50;1.58;;;23.00;99.90;;;;;;5033607;28;20497;-75
2022/07/25 09:05:09;;;;;;;4.30;1.70;;;23.00;99.90;;;;;;5043192;28;20103;-75
2022/07/25 09:07:40;;;;;;;1.92;1.40;;;23.10;99.90;;;;;;5046212;28;20081;-75
2022/07/25 09:10:18;;;;;;;5.38;1.98;;;23.10;99.90;;;;;;5043165;28;20052;-74
2022/07/25 09:12:55;;;;;;;4.00;1.52;;;23.10;99.90;;;;;;5026663;28;20088;-75
2022/07/25 09:15:28;;;;;;;9.77;5.10;;;23.10;99.90;;;;;;5041019;28;20049;-75
2022/07/25 09:17:55;;;;;;;5.72;1.65;;;23.00;99.90;;;;;;5042173;28;20131;-76
2022/07/25 09:20:43;;;;;;;3.70;1.58;;;23.00;99.90;;;;;;5026766;28;20045;-75
2022/07/25 09:23:31;;;;;;;3.78;1.70;;;23.00;99.90;;;;;;5036156;28;20460;-75
2022/07/25 09:26:09;;;;;;;4.30;1.90;;;23.00;99.90;;;;;;5031334;28;20041;-75
2022/07/25 09:28:48;;;;;;;2.00;1.40;;;23.00;99.90;;;;;;5025273;28;20033;-76
2022/07/25 09:31:15;;;;;;;4.50;1.30;;;22.90;99.90;;;;;;5040268;28;20056;-76
2022/07/25 09:34:00;;;;;;;1.65;1.52;;;23.00;99.90;;;;;;5028234;28;20381;-77
2022/07/25 09:36:26;;;;;;;4.95;1.85;;;23.10;99.90;;;;;;5040282;28;20052;-75
2022/07/25 09:38:53;;;;;;;1.70;1.30;;;23.00;99.90;;;;;;5039832;28;20436;-76
2022/07/25 09:41:20;;;;;;;5.88;1.42;;;23.00;99.90;;;;;;5044053;28;20056;-76
2022/07/25 09:43:46;;;;;;;5.82;1.30;;;23.10;99.90;;;;;;5024287;28;20034;-76
2022/07/25 09:46:12;;;;;;;1.08;0.98;;;23.10;99.90;;;;;;5024768;28;20060;-75
2022/07/25 09:48:44;;;;;;;7.40;1.30;;;23.10;99.90;;;;;;5046036;28;20505;-76
2022/07/25 09:51:11;;;;;;;3.38;1.63;;;23.00;99.90;;;;;;5041614;28;20055;-74
2022/07/25 09:53:44;;;;;;;2.25;1.50;;;23.00;99.90;;;;;;5034261;28;20032;-76
2022/07/25 09:56:09;;;;;;;2.55;1.75;;;23.00;99.90;;;;;;5030055;28;20061;-76
2022/07/25 09:58:35;;;;;;;1.98;1.33;;;23.00;99.90;;;;;;5024472;28;20050;-76
2022/07/25 10:01:06;;;;;;;1.52;1.35;;;23.00;99.90;;;;;;5027511;28;20045;-75
2022/07/25 10:03:51;;;;;;;2.70;1.42;;;23.10;99.90;;;;;;5024949;28;20529;-76
2022/07/25 10:06:33;;;;;;;4.25;1.55;;;23.00;99.90;;;;;;5031606;28;20417;-76
2022/07/25 10:08:59;;;;;;;4.22;1.67;;;23.10;99.90;;;;;;5022373;28;20124;-76
2022/07/25 10:11:29;;;;;;;5.97;4.28;;;23.00;99.90;;;;;;5024647;28;20037;-76
2022/07/25 10:13:55;;;;;;;7.03;4.40;;;23.00;99.90;;;;;;5018959;28;20500;-76
2022/07/25 10:16:26;;;;;;;2.92;1.35;;;22.90;99.90;;;;;;5014455;28;20176;-76
2022/07/25 10:18:57;;;;;;;3.55;1.52;;;22.80;99.90;;;;;;5026376;28;20099;-77
2022/07/25 10:21:25;;;;;;;4.97;2.03;;;22.80;99.90;;;;;;5015657;28;20033;-76
2022/07/25 10:24:05;;;;;;;3.25;1.98;;;22.70;99.90;;;;;;5030704;28;20510;-74
2022/07/25 10:26:32;;;;;;;1.70;1.38;;;22.70;99.90;;;;;;5020265;28;20374;-76
2022/07/25 10:29:01;;;;;;;8.23;1.80;;;22.60;99.90;;;;;;5016556;28;20109;-77
2022/07/25 10:31:40;;;;;;;6.95;2.45;;;22.60;99.90;;;;;;5014679;28;20489;-77
2022/07/25 10:34:08;;;;;;;9.10;1.75;;;22.70;99.90;;;;;;5017058;28;20596;-76
2022/07/25 10:36:46;;;;;;;6.15;3.90;;;22.30;99.90;;;;;;5026149;28;20054;-76
2022/07/25 10:39:14;;;;;;;5.32;2.40;;;22.20;99.90;;;;;;5015476;28;20044;-77
2022/07/25 10:41:42;;;;;;;7.68;2.92;;;21.90;99.90;;;;;;5022411;28;20131;-77
2022/07/25 10:44:13;;;;;;;8.32;2.70;;;21.90;99.90;;;;;;5021507;28;20045;-76
2022/07/25 10:46:39;;;;;;;6.68;2.60;;;21.80;99.90;;;;;;5016970;28;20092;-76
2022/07/25 10:49:18;;;;;;;6.10;2.20;;;21.80;99.90;;;;;;5019623;28;20048;-76
2022/07/25 10:51:58;;;;;;;4.50;2.55;;;21.90;99.90;;;;;;5021492;28;20056;-76
2022/07/25 10:54:24;;;;;;;6.15;2.70;;;21.90;99.90;;;;;;5013622;28;20050;-78
2022/07/25 10:56:58;;;;;;;6.53;2.22;;;22.10;99.90;;;;;;5021249;28;20091;-76
2022/07/25 10:59:34;;;;;;;5.82;2.75;;;22.20;99.90;;;;;;5027580;28;20053;-76
2022/07/25 11:02:01;;;;;;;4.75;2.03;;;22.20;99.90;;;;;;5044830;28;20041;-77
2022/07/25 11:04:27;;;;;;;6.00;2.08;;;22.20;99.90;;;;;;5032298;28;20128;-77
2022/07/25 11:06:53;;;;;;;3.30;1.75;;;22.20;99.90;;;;;;5038226;28;20033;-77
2022/07/25 11:09:26;;;;;;;6.38;2.03;;;22.20;99.90;;;;;;5041197;28;20041;-77
2022/07/25 11:11:57;;;;;;;4.80;1.27;;;22.20;99.90;;;;;;5023256;28;20042;-75
2022/07/25 11:14:24;;;;;;;5.32;2.15;;;22.20;99.90;;;;;;5034353;28;20295;-76
2022/07/25 11:16:54;;;;;;;7.82;2.15;;;22.20;99.90;;;;;;5016509;28;20110;-77
2022/07/25 11:19:28;;;;;;;9.55;1.90;;;22.30;99.90;;;;;;5041063;28;20103;-78
2022/07/25 11:21:56;;;;;;;6.85;1.90;;;22.30;99.90;;;;;;5037901;28;20049;-77
2022/07/25 11:24:33;;;;;;;6.40;2.55;;;22.40;99.90;;;;;;5040830;28;20123;-76
2022/07/25 11:26:58;;;;;;;6.30;2.08;;;22.50;99.90;;;;;;5042454;28;20059;-78
2022/07/25 11:29:27;;;;;;;6.30;2.13;;;22.50;99.90;;;;;;5019986;28;20497;-74
2022/07/25 11:31:56;;;;;;;8.73;2.22;;;22.60;99.90;;;;;;4997637;28;20520;-77
2022/07/25 11:34:27;;;;;;;5.65;1.92;;;22.70;99.90;;;;;;5043196;28;20137;-77
2022/07/25 11:36:56;;;;;;;7.07;2.15;;;22.70;99.90;;;;;;5031874;28;20102;-77
2022/07/25 11:39:30;;;;;;;6.93;2.22;;;22.70;99.90;;;;;;5040885;28;20378;-78
2022/07/25 11:42:17;;;;;;;9.77;2.22;;;22.60;99.90;;;;;;5038947;28;20519;-77
2022/07/25 11:44:49;;;;;;;14.02;2.30;;;22.50;99.90;;;;;;5038145;28;20108;-78
2022/07/25 11:47:30;;;;;;;9.88;1.92;;;22.40;99.90;;;;;;5039434;28;20044;-75
2022/07/25 11:49:59;;;;;;;11.13;2.40;;;22.30;99.90;;;;;;5041300;28;20047;-76
2022/07/25 11:52:29;;;;;;;8.07;2.33;;;22.20;99.90;;;;;;5040312;28;20128;-77
2022/07/25 11:55:00;;;;;;;9.45;1.98;;;22.20;99.90;;;;;;5038353;28;20397;-77
2022/07/25 11:57:31;;;;;;;9.38;2.38;;;22.20;99.90;;;;;;5039834;28;20117;-77
2022/07/25 11:59:59;;;;;;;7.43;2.10;;;22.20;99.90;;;;;;5041606;28;20508;-77
2022/07/25 12:02:29;;;;;;;7.47;1.95;;;22.30;99.90;;;;;;5027158;28;20049;-78
2022/07/25 12:05:00;;;;;;;6.22;1.48;;;22.30;99.90;;;;;;5043683;28;20041;-76
2022/07/25 12:07:40;;;;;;;9.07;1.85;;;22.40;99.90;;;;;;5043064;28;20037;-77
2022/07/25 12:10:17;;;;;;;6.47;1.77;;;22.50;99.90;;;;;;5044513;28;20040;-77
2022/07/25 12:12:47;;;;;;;8.07;1.52;;;22.50;99.90;;;;;;5040562;28;20037;-78
2022/07/25 12:15:16;;;;;;;5.07;1.90;;;22.50;99.90;;;;;;5041924;28;20512;-77
2022/07/25 12:17:43;;;;;;;5.38;1.88;;;22.50;99.90;;;;;;5040861;28;20401;-78
2022/07/25 12:20:26;;;;;;;5.63;2.08;;;22.60;99.90;;;;;;5048486;28;20029;-79
2022/07/25 12:22:56;;;;;;;6.40;1.83;;;22.80;99.90;;;;;;5034948;28;20124;-78
2022/07/25 12:25:22;;;;;;;8.75;1.63;;;22.80;99.90;;;;;;5041717;28;20493;-76
2022/07/25 12:27:48;;;;;;;5.80;1.48;;;22.80;99.90;;;;;;5044641;28;20392;-76
2022/07/25 12:30:17;;;;;;;6.65;1.70;;;22.70;99.90;;;;;;5044831;28;20055;-76
2022/07/25 12:32:43;;;;;;;7.25;1.70;;;22.60;99.90;;;;;;5028497;28;20046;-76
2022/07/25 12:35:14;;;;;;;7.38;1.90;;;22.50;99.90;;;;;;5041935;28;20037;-76
2022/07/25 12:37:43;;;;;;;6.35;1.85;;;22.50;99.90;;;;;;5039685;28;20056;-77
2022/07/25 12:40:13;;;;;;;6.15;1.52;;;22.40;99.90;;;;;;5046609;28;20175;-76
2022/07/25 12:42:39;;;;;;;7.07;1.30;;;22.40;99.90;;;;;;5041511;28;20056;-75
2022/07/25 12:45:08;;;;;;;7.15;1.85;;;22.40;99.90;;;;;;5040575;28;20084;-77
2022/07/25 12:47:34;;;;;;;6.13;1.33;;;22.40;99.90;;;;;;5042691;28;20143;-76
2022/07/25 12:50:04;;;;;;;6.53;1.50;;;22.40;99.90;;;;;;5044516;28;20408;-76